Bean Station, TN (37708)

7:38 AM EDT on September 01, 2014 (GMT -0400)
Bean Station Cherokee Lake | Change Station
CLOSE
Current Station
Personal Weather Station
Location: Bean Station, TN
Elevation: 1125 ft
Nearby Weather Stations

Elev 1125 ft 36.28 °N, 83.38 °W | Updated 7 seconds ago

Fog
Fog
70.3 °F
Feels Like 70.3 °F
N
0.0
Wind Variable Wind from North
Gusts 0.0 mph

Today
High -- | Low -- °F
--% Chance of Precip.
Yesterday
High -- | Low -- °F
Precip. -- in
7:04 AM 8:01 PM
Waxing Crescent, 40% visible
Pressure 30.18 in
Visibility 0.2 miles
Clouds
Dew Point 70 °F
Humidity 99%
Rainfall 0.00 in
Snow Depth Not available.
UV Not available.
Pollen 10.20 out of 12
Ozone Good
PM2.5 Moderate
Flu Activity Not available.
METAR K0VG 011115Z AUTO 00000KT 1/4SM FG 19/19 A3018 RMK AO2

More Conditions Fewer Conditions

Pressure 30.18 in
Visibility 0.2 miles
Clouds
Dew Point 70 °F
Humidity 99%
Rainfall 0.00 in
Snow Depth Not available.
UV Not available.
Pollen 10.20 out of 12
Ozone Good
PM2.5 Moderate
Flu Activity Not available.
METAR K0VG 011115Z AUTO 00000KT 1/4SM FG 19/19 A3018 RMK AO2

More Conditions Fewer Conditions

10-Day Weather Forecast

Almanac

Astronomy

Sep. 01, 2014 Rise Set
Actual Time 7:04 AM EDT 8:01 PM EDT
Civil Twilight 6:38 AM EDT 8:27 PM EDT
Nautical Twilight 6:07 AM EDT 8:58 PM EDT
Astronomical Twilight 5:34 AM EDT 9:30 PM EDT
Moon 1:37 PM EDT No Moon Set
Length of Visible Light 13h 49m
Length of Day
12h 56m
Tomorrow will be 2m 12s shorter.
Waxing Crescent, 40% of the Moon is Illuminated
Today
Waxing Crescent
Sep 2
First Quarter
Sep 8
Full
Sep 15
Last Quarter
Sep 24
New

Today's Extremes

State Highs State Lows

Community

WunderPhotos

Upload Photos

1,749,188 photos uploaded!

Nearby

Air Quality

  Air Quality AQ Index Pollutant
Yesterday Good
PM2.5
Yesterday Good
OZONE
Current Moderate
PM2.5
Current Good
OZONE
Monday Good
OZONE
Monday Good
PM2.5
Tuesday Moderate
PM2.5
Tuesday Good
OZONE

Snow Depth

Station Depth Elevation
No new snow has been reported.

Earthquake Activity

City Distance Mag. Time & Date
No recent earthquake activity has been reported nearby.
Minimum magnitude displayed is 2.5.

Coastal Water Temperatures

Place Temperature
No Stations Reporting

Nearby Weather Stations